Time;durP1;ratioP1;P1;durP2;ratioP2;P2;SDS_P1;SDS_P2;PMS_P1;PMS_P2;Temp;Humidity;BMP_temperature;BMP_pressure;BME280_temperature;BME280_humidity;BME280_pressure;Samples;Min_cycle;Max_cycle;Signal;HPM_P1;HPM_P2
2021/03/03 00:01:36;;;;;;;15.60;2.45;;;18.50;99.90;;;;;;4894968;29;20382;-84
2021/03/03 00:04:03;;;;;;;13.20;2.63;;;18.60;99.90;;;;;;4894861;29;20382;-85
2021/03/03 00:06:30;;;;;;;14.80;2.85;;;18.60;99.90;;;;;;4888390;29;20398;-85
2021/03/03 00:08:58;;;;;;;10.43;2.50;;;18.50;99.90;;;;;;4876156;29;20883;-85
2021/03/03 00:11:25;;;;;;;10.73;2.47;;;18.50;99.90;;;;;;4876264;29;20498;-85
2021/03/03 00:13:52;;;;;;;9.97;2.53;;;18.40;99.90;;;;;;4876130;29;20539;-84
2021/03/03 00:16:19;;;;;;;12.38;2.60;;;18.40;99.90;;;;;;4875300;29;20427;-85
2021/03/03 00:18:46;;;;;;;14.55;2.42;;;18.40;99.90;;;;;;4874821;29;20397;-85
2021/03/03 00:21:13;;;;;;;13.80;2.95;;;18.40;99.90;;;;;;4875901;29;20879;-86
2021/03/03 00:23:41;;;;;;;13.88;2.60;;;18.50;99.90;;;;;;4875804;29;20947;-85
2021/03/03 00:26:08;;;;;;;12.90;2.67;;;18.70;99.90;;;;;;4875245;29;20407;-84
2021/03/03 00:28:35;;;;;;;11.70;2.72;;;19.50;99.90;;;;;;4875656;29;20387;-85
2021/03/03 00:31:02;;;;;;;12.27;2.42;;;19.60;99.90;;;;;;4876130;29;20410;-82
2021/03/03 00:33:30;;;;;;;11.00;2.30;;;19.60;99.50;;;;;;4858610;29;20403;-85
2021/03/03 00:35:56;;;;;;;10.65;2.67;;;20.30;99.70;;;;;;4875287;29;20915;-83
2021/03/03 00:38:23;;;;;;;11.25;2.83;;;21.50;98.50;;;;;;4875433;29;20407;-82
2021/03/03 00:40:50;;;;;;;13.52;2.30;;;22.00;96.30;;;;;;4875429;29;20397;-83
2021/03/03 00:43:17;;;;;;;12.00;2.28;;;21.80;95.70;;;;;;4875486;29;20407;-83
2021/03/03 00:45:44;;;;;;;12.40;2.15;;;21.50;96.70;;;;;;4875248;29;20391;-84
2021/03/03 00:48:11;;;;;;;14.73;3.00;;;21.10;96.60;;;;;;4874527;29;20899;-85
2021/03/03 00:50:38;;;;;;;14.02;2.88;;;20.70;96.90;;;;;;4875219;29;20399;-84
2021/03/03 00:53:14;;;;;;;10.30;2.30;;;20.30;97.20;;;;;;4875065;29;20447;-84
2021/03/03 00:55:41;;;;;;;13.10;2.80;;;19.90;97.50;;;;;;4875178;29;20455;-82
2021/03/03 00:58:08;;;;;;;11.95;2.85;;;19.90;98.30;;;;;;4875185;29;20929;-85
2021/03/03 01:00:35;;;;;;;9.18;1.92;;;19.90;98.50;;;;;;4877530;29;20394;-85
2021/03/03 01:03:03;;;;;;;11.10;2.08;;;19.90;98.90;;;;;;4881428;29;20804;-85
2021/03/03 01:05:30;;;;;;;12.30;2.53;;;19.80;98.30;;;;;;4881005;29;20414;-84
2021/03/03 01:07:57;;;;;;;13.70;3.03;;;19.60;98.10;;;;;;4881006;29;20406;-86
2021/03/03 01:10:24;;;;;;;8.98;2.20;;;19.50;98.10;;;;;;4881020;29;20406;-85
2021/03/03 01:12:51;;;;;;;10.75;2.20;;;19.40;98.90;;;;;;4881338;29;21015;-86
2021/03/03 01:15:18;;;;;;;15.50;2.47;;;19.50;99.30;;;;;;4880070;29;20407;-85
2021/03/03 01:17:45;;;;;;;12.23;2.42;;;19.80;99.00;;;;;;4881080;29;20573;-85
2021/03/03 01:20:13;;;;;;;10.45;2.25;;;20.20;97.70;;;;;;4880746;29;20387;-84
2021/03/03 01:22:40;;;;;;;11.32;2.30;;;20.60;96.90;;;;;;4881230;29;20749;-86
2021/03/03 01:25:07;;;;;;;5.93;2.30;;;20.70;97.50;;;;;;4880325;29;20486;-86
2021/03/03 01:27:34;;;;;;;9.25;2.15;;;20.50;97.00;;;;;;4880687;29;20542;-85
2021/03/03 01:30:01;;;;;;;11.10;2.10;;;20.80;98.50;;;;;;4880644;29;20490;-86
2021/03/03 01:32:32;;;;;;;12.98;2.60;;;21.30;98.00;;;;;;4884472;29;20399;-85
2021/03/03 01:34:59;;;;;;;10.57;2.35;;;21.90;96.10;;;;;;4880635;29;20399;-84
2021/03/03 01:37:26;;;;;;;7.68;1.77;;;22.00;94.30;;;;;;4878780;29;20822;-83
2021/03/03 01:39:53;;;;;;;9.65;2.10;;;22.10;94.30;;;;;;4879918;29;20387;-85
2021/03/03 01:42:20;;;;;;;7.53;1.90;;;21.80;93.60;;;;;;4880788;29;20393;-86
2021/03/03 01:44:47;;;;;;;8.05;2.25;;;21.30;93.70;;;;;;4880241;29;20399;-86
2021/03/03 01:47:14;;;;;;;11.35;2.15;;;21.10;95.20;;;;;;4880770;29;20398;-87
2021/03/03 01:49:41;;;;;;;8.20;2.20;;;21.00;94.10;;;;;;4880719;29;20505;-85
2021/03/03 01:52:08;;;;;;;11.15;1.90;;;21.00;95.60;;;;;;4881878;29;20489;-84
2021/03/03 01:54:35;;;;;;;13.68;2.50;;;21.00;95.10;;;;;;4881996;29;20711;-86
2021/03/03 01:57:03;;;;;;;9.90;2.17;;;21.00;95.70;;;;;;4882443;29;20426;-86
2021/03/03 01:59:30;;;;;;;10.93;2.00;;;21.20;94.90;;;;;;4882443;29;20411;-87
2021/03/03 02:01:57;;;;;;;13.38;2.30;;;21.20;94.60;;;;;;4881298;29;20410;-84
2021/03/03 02:04:24;;;;;;;9.23;2.28;;;21.00;94.50;;;;;;4879041;29;20407;-85
2021/03/03 02:07:00;;;;;;;9.43;2.08;;;20.70;94.90;;;;;;4880257;29;20939;-85
2021/03/03 02:09:46;;;;;;;13.50;2.28;;;20.60;95.40;;;;;;4886998;29;21015;-84
2021/03/03 02:12:50;;;;;;;8.98;1.98;;;20.50;94.90;;;;;;4878905;29;20430;-83
2021/03/03 02:15:20;;;;;;;12.50;2.35;;;20.40;95.00;;;;;;4869308;29;20411;-85
2021/03/03 02:17:48;;;;;;;7.22;2.03;;;20.70;95.40;;;;;;4862145;29;20423;-85
2021/03/03 02:20:18;;;;;;;10.40;2.15;;;21.00;95.60;;;;;;4873837;29;20913;-84
2021/03/03 02:23:03;;;;;;;16.03;2.67;;;21.00;94.60;;;;;;4878990;29;20490;-86
2021/03/03 02:25:36;;;;;;;12.18;2.30;;;20.90;94.40;;;;;;4880283;29;20898;-84
2021/03/03 02:28:08;;;;;;;9.90;2.13;;;20.70;95.40;;;;;;4879103;29;20899;-85
2021/03/03 02:30:41;;;;;;;8.93;2.00;;;20.50;95.30;;;;;;4861739;29;20399;-86
2021/03/03 02:33:12;;;;;;;9.10;1.90;;;20.20;95.40;;;;;;4878084;29;20417;-86
2021/03/03 02:35:40;;;;;;;11.30;2.25;;;20.10;95.90;;;;;;4878359;29;20415;-86
2021/03/03 02:38:08;;;;;;;8.95;2.42;;;20.10;96.50;;;;;;4879664;29;20423;-85
2021/03/03 02:40:36;;;;;;;10.38;2.00;;;20.10;96.60;;;;;;4877492;29;20708;-86
2021/03/03 02:43:04;;;;;;;10.65;1.95;;;20.00;96.30;;;;;;4877616;29;20391;-84
2021/03/03 02:45:31;;;;;;;9.13;2.13;;;19.90;96.20;;;;;;4866551;29;20535;-85
2021/03/03 02:48:00;;;;;;;96.95;20.48;;;19.80;97.00;;;;;;4876956;29;20415;-86
2021/03/03 02:50:27;;;;;;;96.88;20.13;;;19.80;96.90;;;;;;4876797;29;20419;-86
2021/03/03 02:52:57;;;;;;;49.95;16.73;;;19.70;97.00;;;;;;4876862;29;20893;-86
2021/03/03 02:55:26;;;;;;;14.98;3.25;;;19.70;97.50;;;;;;4877091;29;20395;-84
2021/03/03 02:58:01;;;;;;;21.45;7.28;;;19.70;97.20;;;;;;4880191;29;20455;-84
2021/03/03 03:00:37;;;;;;;20.27;6.97;;;19.60;96.90;;;;;;4879238;29;20421;-86
2021/03/03 03:03:16;;;;;;;14.07;2.92;;;19.50;96.90;;;;;;4877742;29;20402;-83
2021/03/03 03:05:46;;;;;;;10.68;2.20;;;19.50;97.20;;;;;;4877354;29;20947;-84
2021/03/03 03:08:17;;;;;;;11.90;2.80;;;19.50;97.20;;;;;;4877022;29;20441;-84
2021/03/03 03:10:44;;;;;;;10.07;2.50;;;19.80;97.80;;;;;;4877236;29;20383;-83
2021/03/03 03:13:16;;;;;;;14.82;2.65;;;20.00;96.90;;;;;;4876992;29;20399;-83
2021/03/03 03:15:46;;;;;;;12.98;2.72;;;20.00;96.80;;;;;;4876875;29;20403;-84
2021/03/03 03:18:18;;;;;;;10.43;2.40;;;20.00;96.80;;;;;;4877021;29;21114;-83
2021/03/03 03:20:46;;;;;;;11.27;2.10;;;20.10;97.10;;;;;;4877424;29;20394;-84
2021/03/03 03:23:14;;;;;;;9.18;1.80;;;20.20;96.20;;;;;;4877261;29;20879;-84
2021/03/03 03:25:41;;;;;;;7.05;1.92;;;20.20;96.70;;;;;;4876147;29;20844;-83
2021/03/03 03:28:08;;;;;;;12.68;2.00;;;20.20;96.30;;;;;;4875981;29;20486;-83
2021/03/03 03:30:36;;;;;;;9.57;2.10;;;20.10;97.00;;;;;;4876313;29;20505;-83
2021/03/03 03:33:04;;;;;;;12.10;2.47;;;20.20;97.10;;;;;;4876758;29;20413;-82
2021/03/03 03:35:31;;;;;;;18.80;3.22;;;20.40;95.70;;;;;;4876719;29;20759;-82
2021/03/03 03:37:59;;;;;;;12.95;2.25;;;20.50;95.60;;;;;;4875276;29;20449;-83
2021/03/03 03:40:27;;;;;;;8.43;2.25;;;20.70;96.20;;;;;;4875529;29;20414;-85
2021/03/03 03:42:54;;;;;;;10.18;1.90;;;20.90;95.50;;;;;;4876615;29;20426;-83
2021/03/03 03:45:23;;;;;;;8.40;1.80;;;21.00;94.70;;;;;;4876287;29;20417;-84
2021/03/03 03:47:51;;;;;;;7.80;1.70;;;21.00;94.90;;;;;;4876226;29;20470;-86
2021/03/03 03:50:20;;;;;;;10.32;2.05;;;21.20;95.70;;;;;;4876084;29;20547;-85
2021/03/03 03:52:55;;;;;;;7.15;1.70;;;21.40;93.70;;;;;;4876215;29;20400;-81
2021/03/03 03:55:34;;;;;;;9.80;2.00;;;21.40;94.10;;;;;;4862623;29;20409;-84
2021/03/03 03:58:02;;;;;;;11.63;2.10;;;21.20;95.30;;;;;;4870027;29;20968;-84
2021/03/03 04:00:30;;;;;;;7.53;1.58;;;21.00;95.50;;;;;;4874265;29;20403;-84
2021/03/03 04:02:57;;;;;;;8.77;1.92;;;20.90;95.70;;;;;;4876276;29;20407;-84
2021/03/03 04:05:25;;;;;;;9.15;2.13;;;20.80;95.50;;;;;;4875595;29;20413;-84
2021/03/03 04:07:53;;;;;;;12.20;2.20;;;20.70;94.10;;;;;;4876102;29;20877;-86
2021/03/03 04:10:23;;;;;;;11.73;2.95;;;20.70;93.70;;;;;;4875785;29;20402;-87
2021/03/03 04:12:50;;;;;;;11.30;2.22;;;20.80;94.50;;;;;;4876541;29;20406;-84
2021/03/03 04:15:18;;;;;;;11.17;2.30;;;20.90;94.80;;;;;;4873648;29;20407;-86
2021/03/03 04:17:45;;;;;;;10.82;2.03;;;21.00;94.70;;;;;;4882336;29;20832;-83
2021/03/03 04:20:12;;;;;;;13.18;2.38;;;21.10;94.40;;;;;;4875185;29;20402;-83
2021/03/03 04:22:40;;;;;;;8.15;2.13;;;21.00;94.10;;;;;;4875848;29;20407;-82
2021/03/03 04:25:12;;;;;;;10.23;2.13;;;20.70;94.40;;;;;;4875563;29;20460;-84
2021/03/03 04:27:39;;;;;;;10.27;2.20;;;20.50;95.20;;;;;;4875230;29;20441;-84
2021/03/03 04:30:12;;;;;;;10.07;2.10;;;20.40;95.70;;;;;;4874656;29;20379;-81
2021/03/03 04:32:40;;;;;;;9.18;2.08;;;20.40;95.30;;;;;;4874270;29;20421;-85
2021/03/03 04:35:07;;;;;;;8.48;2.10;;;20.60;95.30;;;;;;4874260;29;20415;-81
2021/03/03 04:37:35;;;;;;;11.05;2.25;;;20.80;93.80;;;;;;4858250;29;20419;-81
2021/03/03 04:40:03;;;;;;;11.18;2.60;;;21.10;93.70;;;;;;4873243;29;20459;-83
2021/03/03 04:42:30;;;;;;;7.88;2.10;;;21.20;93.90;;;;;;4872384;29;20458;-83
2021/03/03 04:44:57;;;;;;;11.32;2.00;;;21.40;93.60;;;;;;4873994;29;20482;-83
2021/03/03 04:47:24;;;;;;;13.60;2.40;;;21.50;93.10;;;;;;4872627;29;20441;-84
2021/03/03 04:49:51;;;;;;;10.15;2.13;;;21.40;93.80;;;;;;4874417;29;20425;-82
2021/03/03 04:52:18;;;;;;;10.95;1.90;;;21.10;94.00;;;;;;4863474;29;20407;-83
2021/03/03 04:54:45;;;;;;;8.20;2.00;;;20.90;94.60;;;;;;4875307;29;20411;-81
2021/03/03 04:57:12;;;;;;;7.60;2.20;;;20.80;94.40;;;;;;4875241;29;20935;-82
2021/03/03 04:59:39;;;;;;;9.25;2.40;;;20.60;94.40;;;;;;4875296;29;20391;-82
2021/03/03 05:02:07;;;;;;;10.73;2.10;;;20.60;95.40;;;;;;4874196;29;20446;-83
2021/03/03 05:04:33;;;;;;;8.05;2.05;;;20.40;95.00;;;;;;4857350;29;20441;-83
2021/03/03 05:07:01;;;;;;;9.18;1.70;;;20.40;95.00;;;;;;4871538;29;20438;-83
2021/03/03 05:09:28;;;;;;;7.13;1.88;;;20.40;95.80;;;;;;4874076;29;20772;-82
2021/03/03 05:11:54;;;;;;;12.15;2.15;;;20.30;95.40;;;;;;4874886;29;20422;-83
2021/03/03 05:14:21;;;;;;;10.50;1.90;;;20.40;96.00;;;;;;4875912;29;20471;-83
2021/03/03 05:16:48;;;;;;;8.82;1.77;;;20.40;95.40;;;;;;4874757;29;20411;-82
2021/03/03 05:19:15;;;;;;;11.75;2.35;;;20.40;96.20;;;;;;4876064;29;20929;-82
2021/03/03 05:21:42;;;;;;;10.35;2.08;;;20.40;95.60;;;;;;4876441;29;20457;-83
2021/03/03 05:24:09;;;;;;;9.80;2.10;;;20.60;95.50;;;;;;4874607;29;20474;-83
2021/03/03 05:26:36;;;;;;;10.23;2.10;;;20.70;95.80;;;;;;4873352;29;20426;-82
2021/03/03 05:29:04;;;;;;;13.90;2.13;;;20.50;95.70;;;;;;4872818;29;20933;-83
2021/03/03 05:31:31;;;;;;;10.75;2.17;;;20.30;95.90;;;;;;4872243;29;20410;-82
2021/03/03 05:33:59;;;;;;;9.60;2.20;;;20.10;96.20;;;;;;4874916;29;20494;-83
2021/03/03 05:36:26;;;;;;;8.60;1.90;;;20.00;95.90;;;;;;4875111;29;20438;-83
2021/03/03 05:38:53;;;;;;;7.25;2.03;;;20.00;96.60;;;;;;4875218;29;20403;-84
2021/03/03 05:41:23;;;;;;;9.73;2.22;;;19.90;96.50;;;;;;4884535;29;20393;-84
2021/03/03 05:43:51;;;;;;;12.10;2.15;;;19.80;97.10;;;;;;4874596;29;20417;-83
2021/03/03 05:46:19;;;;;;;10.13;2.30;;;19.80;96.60;;;;;;4874849;29;20447;-84
2021/03/03 05:49:19;;;;;;;9.32;2.00;;;19.80;97.50;;;;;;4877721;29;20415;-82
2021/03/03 05:51:47;;;;;;;10.80;2.30;;;19.90;97.10;;;;;;4878000;29;20399;-84
2021/03/03 05:54:15;;;;;;;11.53;1.93;;;19.90;96.50;;;;;;4878244;29;20595;-83
2021/03/03 05:56:44;;;;;;;11.98;2.13;;;19.80;96.40;;;;;;4878071;29;20406;-82
2021/03/03 05:59:11;;;;;;;7.03;2.15;;;19.80;96.50;;;;;;4877578;29;20898;-82
2021/03/03 06:01:40;;;;;;;8.65;1.75;;;19.80;96.40;;;;;;4859727;29;20401;-83
2021/03/03 06:04:09;;;;;;;11.13;2.08;;;19.80;96.80;;;;;;4882282;29;20409;-83
2021/03/03 06:06:42;;;;;;;8.95;2.33;;;19.80;97.20;;;;;;4877365;29;20407;-82
2021/03/03 06:09:10;;;;;;;9.93;1.97;;;19.90;97.30;;;;;;4879376;29;20402;-89
2021/03/03 06:11:37;;;;;;;10.38;2.03;;;19.80;96.60;;;;;;4863699;29;20404;-82
2021/03/03 06:14:04;;;;;;;7.15;1.88;;;19.70;96.20;;;;;;4882031;29;20398;-80
2021/03/03 06:16:31;;;;;;;6.75;1.52;;;19.60;96.80;;;;;;4876626;29;20768;-80
2021/03/03 06:18:58;;;;;;;9.32;1.90;;;19.50;96.90;;;;;;4873681;29;20455;-81
2021/03/03 06:21:27;;;;;;;11.40;2.10;;;19.30;97.80;;;;;;4872527;29;20415;-81
2021/03/03 06:24:08;;;;;;;11.48;2.42;;;19.20;97.90;;;;;;4873087;29;20505;-81
2021/03/03 06:26:53;;;;;;;10.18;2.13;;;19.10;98.00;;;;;;4884959;29;21137;-83
2021/03/03 06:29:20;;;;;;;12.48;2.20;;;19.10;98.30;;;;;;4874226;29;20411;-81
2021/03/03 06:31:49;;;;;;;8.30;1.77;;;19.00;98.00;;;;;;4876357;29;20403;-83
2021/03/03 06:34:17;;;;;;;8.18;1.70;;;19.00;98.50;;;;;;4876189;29;20443;-83
2021/03/03 06:37:04;;;;;;;12.07;2.40;;;19.00;99.00;;;;;;4874886;29;20471;-83
2021/03/03 06:39:33;;;;;;;7.65;1.98;;;18.90;98.60;;;;;;4873738;29;20403;-82
2021/03/03 06:42:01;;;;;;;10.37;2.30;;;18.90;98.60;;;;;;4876006;29;20886;-82
2021/03/03 06:44:50;;;;;;;11.13;2.20;;;18.90;98.80;;;;;;4875361;29;20403;-83
2021/03/03 06:47:19;;;;;;;9.73;2.40;;;18.90;99.20;;;;;;4875006;29;20420;-82
2021/03/03 06:49:50;;;;;;;9.48;2.03;;;18.90;99.10;;;;;;4877803;29;20387;-82
2021/03/03 06:52:17;;;;;;;8.60;2.05;;;18.80;99.10;;;;;;4872979;29;20408;-82
2021/03/03 06:54:45;;;;;;;10.32;2.10;;;18.80;99.20;;;;;;4886805;29;20417;-82
2021/03/03 06:57:15;;;;;;;8.60;2.03;;;18.70;99.10;;;;;;4875839;29;20473;-83
2021/03/03 06:59:45;;;;;;;6.90;1.80;;;18.70;99.30;;;;;;4880576;29;20486;-82
2021/03/03 07:02:16;;;;;;;13.25;2.70;;;18.70;99.90;;;;;;4873416;29;20402;-83
2021/03/03 07:04:44;;;;;;;11.83;2.00;;;18.70;99.90;;;;;;4873097;29;20490;-81
2021/03/03 07:07:14;;;;;;;7.30;2.10;;;18.70;99.60;;;;;;4873055;29;20419;-84
2021/03/03 07:09:53;;;;;;;8.20;1.92;;;18.70;99.30;;;;;;4873484;29;20449;-81
2021/03/03 07:12:21;;;;;;;11.88;2.10;;;18.80;99.60;;;;;;4876238;29;20834;-80
2021/03/03 07:15:01;;;;;;;10.15;2.25;;;18.70;99.30;;;;;;4874609;29;20399;-83
2021/03/03 07:17:46;;;;;;;11.93;2.45;;;18.60;99.70;;;;;;4872028;29;20781;-81
2021/03/03 07:20:15;;;;;;;11.57;2.50;;;18.60;99.90;;;;;;4874134;29;20402;-81
2021/03/03 07:22:50;;;;;;;10.40;2.42;;;18.60;99.90;;;;;;4875832;29;20443;-80
2021/03/03 07:25:20;;;;;;;11.60;2.40;;;18.60;99.90;;;;;;4875271;29;20489;-82
2021/03/03 07:27:48;;;;;;;8.43;2.27;;;18.60;99.90;;;;;;4875880;29;20513;-82
2021/03/03 07:30:23;;;;;;;11.93;2.70;;;18.60;99.90;;;;;;4875244;29;20413;-81
2021/03/03 07:32:51;;;;;;;8.53;1.83;;;18.60;99.90;;;;;;4874506;29;20462;-81
2021/03/03 07:35:18;;;;;;;11.65;2.20;;;18.60;99.90;;;;;;4874933;29;20843;-82
2021/03/03 07:37:53;;;;;;;10.23;2.10;;;18.70;99.90;;;;;;4876395;29;20906;-83
2021/03/03 07:40:25;;;;;;;8.00;1.85;;;18.60;99.90;;;;;;4874334;29;20413;-83
2021/03/03 07:42:57;;;;;;;9.40;2.37;;;18.50;99.90;;;;;;4878165;29;20449;-82
2021/03/03 07:45:37;;;;;;;8.68;2.13;;;18.50;99.90;;;;;;4871667;29;20937;-80
2021/03/03 07:48:07;;;;;;;9.52;2.28;;;18.40;99.90;;;;;;4871664;29;20402;-82
2021/03/03 07:50:35;;;;;;;12.50;1.98;;;18.40;99.90;;;;;;4875388;29;20411;-81
2021/03/03 07:53:02;;;;;;;7.00;2.00;;;18.30;99.90;;;;;;4875767;29;20400;-80
2021/03/03 07:55:29;;;;;;;8.00;1.80;;;18.20;99.90;;;;;;4876031;29;20395;-80
2021/03/03 07:57:58;;;;;;;8.38;2.10;;;18.20;99.90;;;;;;4875853;29;20443;-80
2021/03/03 08:00:33;;;;;;;9.37;2.20;;;18.10;99.90;;;;;;4874562;29;20458;-81
2021/03/03 08:03:00;;;;;;;9.32;1.50;;;18.10;99.90;;;;;;4875540;29;20407;-81
2021/03/03 08:05:30;;;;;;;10.15;2.22;;;18.00;99.90;;;;;;4875072;29;20411;-81
2021/03/03 08:08:33;;;;;;;9.95;2.05;;;18.00;99.90;;;;;;4875856;29;20446;-81
2021/03/03 08:11:01;;;;;;;8.45;1.83;;;17.90;99.90;;;;;;4874498;29;20478;-82
2021/03/03 08:13:44;;;;;;;9.70;1.90;;;17.90;99.90;;;;;;4865084;29;20413;-82
2021/03/03 08:16:11;;;;;;;7.10;1.90;;;17.90;99.90;;;;;;4875062;29;20618;-82
2021/03/03 08:18:51;;;;;;;9.68;2.10;;;17.80;99.90;;;;;;4875105;29;20433;-83
2021/03/03 08:21:18;;;;;;;8.38;2.38;;;17.80;99.90;;;;;;4874323;29;20478;-85
2021/03/03 08:23:49;;;;;;;7.85;2.28;;;17.80;99.90;;;;;;4871060;29;20418;-85
2021/03/03 08:26:16;;;;;;;9.75;2.13;;;17.70;99.90;;;;;;4870333;29;20415;-86
2021/03/03 08:28:45;;;;;;;9.70;2.00;;;17.70;99.90;;;;;;4873235;29;20442;-85
2021/03/03 08:31:14;;;;;;;8.43;2.28;;;17.60;99.90;;;;;;4875392;29;20771;-82
2021/03/03 08:33:44;;;;;;;9.88;1.95;;;17.60;99.90;;;;;;4874595;29;20427;-83
2021/03/03 08:36:32;;;;;;;10.20;2.00;;;17.50;99.90;;;;;;4868514;29;20476;-81
2021/03/03 08:38:58;;;;;;;8.15;2.08;;;17.60;99.90;;;;;;4876560;29;20921;-81
2021/03/03 08:41:26;;;;;;;8.27;2.30;;;17.60;99.90;;;;;;4885535;29;20739;-82
2021/03/03 08:44:16;;;;;;;6.88;1.88;;;17.50;99.90;;;;;;4873455;29;20411;-81
2021/03/03 08:46:45;;;;;;;10.07;2.05;;;17.50;99.90;;;;;;4889146;29;20577;-80
2021/03/03 08:49:12;;;;;;;9.68;2.03;;;17.50;99.90;;;;;;4874880;29;20430;-81
2021/03/03 08:51:41;;;;;;;8.63;2.30;;;17.50;99.90;;;;;;4874856;29;20958;-83
2021/03/03 08:54:36;;;;;;;9.25;1.75;;;17.40;99.90;;;;;;4873921;29;20449;-82
2021/03/03 08:57:04;;;;;;;8.75;1.98;;;17.40;99.90;;;;;;4873509;29;20426;-84
2021/03/03 08:59:37;;;;;;;6.95;1.75;;;17.30;99.90;;;;;;4868172;29;20462;-85
2021/03/03 09:02:18;;;;;;;9.90;1.92;;;17.30;99.90;;;;;;4872439;29;20518;-82
2021/03/03 09:04:53;;;;;;;9.90;1.93;;;17.20;99.90;;;;;;4859092;29;20751;-82
2021/03/03 09:07:23;;;;;;;6.97;2.08;;;17.20;99.90;;;;;;4871990;29;20449;-83
2021/03/03 09:09:53;;;;;;;10.47;1.70;;;17.20;99.90;;;;;;4872197;29;20457;-84
2021/03/03 09:12:21;;;;;;;9.05;1.70;;;17.20;99.90;;;;;;4871778;29;20415;-83
2021/03/03 09:14:51;;;;;;;9.23;2.03;;;17.20;99.90;;;;;;4870748;29;20756;-83
2021/03/03 09:17:26;;;;;;;8.30;1.60;;;17.20;99.90;;;;;;4872194;29;20430;-84
2021/03/03 09:19:55;;;;;;;9.32;2.53;;;17.20;99.90;;;;;;4871524;29;20453;-83
2021/03/03 09:22:31;;;;;;;7.53;1.70;;;17.10;99.90;;;;;;4873109;29;20414;-84
2021/03/03 09:25:06;;;;;;;8.48;2.10;;;17.10;99.90;;;;;;4875663;29;20402;-82
2021/03/03 09:27:34;;;;;;;6.70;1.92;;;17.10;99.90;;;;;;4876186;29;20423;-83
2021/03/03 09:30:11;;;;;;;10.05;2.05;;;17.00;99.90;;;;;;4876772;29;20429;-82
2021/03/03 09:32:38;;;;;;;8.48;1.95;;;17.00;99.90;;;;;;4876851;29;20425;-83
2021/03/03 09:35:08;;;;;;;12.60;2.03;;;16.90;99.90;;;;;;4893899;29;20404;-82
2021/03/03 09:37:41;;;;;;;11.60;2.15;;;16.90;99.90;;;;;;4894671;29;20417;-82
2021/03/03 09:40:10;;;;;;;12.90;2.28;;;16.90;99.90;;;;;;4863830;29;20407;-81
2021/03/03 09:42:39;;;;;;;12.25;2.17;;;17.00;99.90;;;;;;4874251;29;20414;-82
2021/03/03 09:45:10;;;;;;;8.97;1.90;;;17.10;99.90;;;;;;4875841;29;20486;-82
2021/03/03 09:47:40;;;;;;;10.00;2.00;;;17.10;99.90;;;;;;4875577;29;20414;-82
2021/03/03 09:50:09;;;;;;;9.60;2.22;;;17.20;99.90;;;;;;4874147;29;20945;-82
2021/03/03 09:52:42;;;;;;;11.60;2.17;;;17.20;99.90;;;;;;4874892;29;20450;-82
2021/03/03 09:55:31;;;;;;;8.75;2.03;;;17.20;99.90;;;;;;4875132;29;20747;-82
2021/03/03 09:57:59;;;;;;;11.48;2.25;;;17.20;99.90;;;;;;4874213;29;20430;-83
2021/03/03 10:00:35;;;;;;;7.15;1.90;;;17.10;99.90;;;;;;4875655;29;20379;-83
2021/03/03 10:03:05;;;;;;;8.77;2.08;;;17.10;99.90;;;;;;4871820;29;20493;-82
2021/03/03 10:05:34;;;;;;;10.88;1.90;;;17.00;99.90;;;;;;4875473;29;20418;-82
2021/03/03 10:08:07;;;;;;;11.55;2.13;;;17.00;99.90;;;;;;4875690;29;20526;-83
2021/03/03 10:10:38;;;;;;;7.63;2.20;;;17.10;99.90;;;;;;4885071;29;20415;-82
2021/03/03 10:13:06;;;;;;;13.32;2.50;;;17.00;99.90;;;;;;4875127;29;20399;-83
2021/03/03 10:15:35;;;;;;;7.30;1.90;;;17.10;99.90;;;;;;4877243;29;20424;-82
2021/03/03 10:18:06;;;;;;;7.82;2.20;;;17.10;99.90;;;;;;4890559;29;20437;-82
2021/03/03 10:20:52;;;;;;;11.23;2.25;;;17.10;99.90;;;;;;4877869;29;20402;-82
2021/03/03 10:23:22;;;;;;;10.65;2.13;;;17.10;99.90;;;;;;4879866;29;20443;-83
2021/03/03 10:25:52;;;;;;;6.30;1.90;;;17.10;99.90;;;;;;4877438;29;20494;-82
2021/03/03 10:28:21;;;;;;;9.03;2.10;;;17.10;99.90;;;;;;4881622;29;20417;-82
2021/03/03 10:30:50;;;;;;;10.95;2.17;;;17.00;99.90;;;;;;4876785;29;20415;-80
2021/03/03 10:33:41;;;;;;;10.23;2.30;;;17.00;99.90;;;;;;4877152;29;20521;-81
2021/03/03 10:36:20;;;;;;;11.73;2.25;;;17.00;99.90;;;;;;4876601;29;20513;-84
2021/03/03 10:38:56;;;;;;;8.70;1.90;;;17.00;99.90;;;;;;4877685;29;20410;-83
2021/03/03 10:41:25;;;;;;;8.52;1.92;;;16.90;99.90;;;;;;4877811;29;20391;-84
2021/03/03 10:43:53;;;;;;;5.93;1.83;;;16.90;99.90;;;;;;4878218;29;20395;-83
2021/03/03 10:46:23;;;;;;;8.63;2.45;;;16.90;99.90;;;;;;4878013;29;20447;-84
2021/03/03 10:48:51;;;;;;;7.03;2.10;;;16.90;99.90;;;;;;4876519;29;20437;-83
2021/03/03 10:51:21;;;;;;;8.20;2.33;;;16.80;99.90;;;;;;4877826;29;20395;-83
2021/03/03 10:53:57;;;;;;;12.40;2.30;;;16.80;99.90;;;;;;4878451;29;20887;-84
2021/03/03 10:56:37;;;;;;;8.30;2.10;;;16.80;99.90;;;;;;4877558;29;20426;-83
2021/03/03 10:59:12;;;;;;;11.65;2.20;;;16.70;99.90;;;;;;4876152;29;20839;-83
2021/03/03 11:01:48;;;;;;;9.75;2.20;;;16.60;99.90;;;;;;4874457;29;20409;-81
2021/03/03 11:04:15;;;;;;;10.40;2.30;;;16.70;99.90;;;;;;4868718;29;20425;-82
2021/03/03 11:06:43;;;;;;;9.95;2.08;;;16.50;99.90;;;;;;4867055;29;20950;-83
2021/03/03 11:09:15;;;;;;;9.82;2.22;;;16.50;99.90;;;;;;4875152;29;20543;-84
2021/03/03 11:11:52;;;;;;;7.63;1.67;;;16.40;99.90;;;;;;4875794;29;20415;-81
2021/03/03 11:14:22;;;;;;;10.32;2.30;;;16.40;99.90;;;;;;4859408;29;20403;-83
2021/03/03 11:16:50;;;;;;;7.73;2.10;;;16.30;99.90;;;;;;4876217;29;20510;-81
2021/03/03 11:19:18;;;;;;;12.20;2.28;;;16.30;99.90;;;;;;4877409;29;20410;-82
2021/03/03 11:21:45;;;;;;;8.13;2.10;;;16.30;99.90;;;;;;4876822;29;20402;-82
2021/03/03 11:24:13;;;;;;;8.05;1.85;;;16.30;99.90;;;;;;4875937;29;20522;-82
2021/03/03 11:26:42;;;;;;;10.73;2.22;;;16.20;99.90;;;;;;4860404;29;20391;-82
2021/03/03 11:29:09;;;;;;;9.23;2.05;;;16.20;99.90;;;;;;4876508;29;20486;-83
2021/03/03 11:31:37;;;;;;;9.23;2.10;;;16.20;99.90;;;;;;4876588;29;20779;-83
2021/03/03 11:34:05;;;;;;;7.65;2.20;;;16.20;99.90;;;;;;4876276;29;20410;-83
2021/03/03 11:36:32;;;;;;;15.60;2.97;;;16.20;99.90;;;;;;4872960;29;20501;-83
2021/03/03 11:38:59;;;;;;;10.65;2.10;;;16.20;99.90;;;;;;4874256;29;20431;-83
2021/03/03 11:41:27;;;;;;;8.02;1.80;;;16.20;99.90;;;;;;4875380;29;20430;-82
2021/03/03 11:43:53;;;;;;;10.93;2.10;;;16.10;99.90;;;;;;4873570;29;21502;-82
2021/03/03 11:46:21;;;;;;;9.37;2.10;;;16.10;99.90;;;;;;4875992;29;20410;-83
2021/03/03 11:48:48;;;;;;;9.10;2.28;;;16.10;99.90;;;;;;4876011;29;20451;-83
2021/03/03 11:51:15;;;;;;;10.57;2.30;;;16.10;99.90;;;;;;4875327;29;20411;-83
2021/03/03 11:53:42;;;;;;;9.48;2.05;;;16.10;99.90;;;;;;4875887;29;20792;-83
2021/03/03 11:56:09;;;;;;;8.00;1.73;;;16.10;99.90;;;;;;4875293;29;20413;-84
2021/03/03 11:58:37;;;;;;;9.45;2.17;;;16.10;99.90;;;;;;4875406;29;20475;-81
2021/03/03 12:01:05;;;;;;;9.80;2.17;;;16.20;99.90;;;;;;4874166;29;20459;-83
2021/03/03 12:03:32;;;;;;;10.27;2.10;;;16.20;99.90;;;;;;4874088;29;20592;-83
2021/03/03 12:05:59;;;;;;;9.57;1.87;;;16.20;99.90;;;;;;4874458;29;20410;-84
2021/03/03 12:08:26;;;;;;;9.27;2.03;;;16.20;99.90;;;;;;4876480;29;20394;-83
2021/03/03 12:10:53;;;;;;;10.02;2.28;;;16.30;99.90;;;;;;4874791;29;21025;-84
2021/03/03 12:13:20;;;;;;;6.90;1.77;;;16.20;99.90;;;;;;4875507;29;20506;-84
2021/03/03 12:15:47;;;;;;;8.07;2.13;;;16.20;99.90;;;;;;4873003;29;20422;-84
2021/03/03 12:18:14;;;;;;;9.85;2.28;;;16.10;99.90;;;;;;4870330;29;20427;-83
2021/03/03 12:20:40;;;;;;;8.93;1.70;;;16.10;99.90;;;;;;4870985;29;20506;-83
2021/03/03 12:23:07;;;;;;;8.20;1.65;;;16.10;99.90;;;;;;4870776;29;20456;-83
2021/03/03 12:25:34;;;;;;;11.80;2.40;;;16.20;99.90;;;;;;4873916;29;20403;-83
2021/03/03 12:28:01;;;;;;;6.65;1.85;;;16.20;99.90;;;;;;4874030;29;20526;-84
2021/03/03 12:30:29;;;;;;;8.73;2.10;;;16.20;99.90;;;;;;4873840;29;21173;-84
2021/03/03 12:32:56;;;;;;;9.20;2.13;;;16.30;99.90;;;;;;4875426;29;20468;-84
2021/03/03 12:35:23;;;;;;;9.65;2.45;;;16.30;99.90;;;;;;4878802;29;20505;-84
2021/03/03 12:37:50;;;;;;;9.88;2.00;;;16.30;99.90;;;;;;4873940;29;20418;-84
2021/03/03 12:40:17;;;;;;;8.43;1.90;;;16.40;99.90;;;;;;4875537;29;20402;-84
2021/03/03 12:42:44;;;;;;;9.93;2.20;;;16.40;99.90;;;;;;4875607;29;20415;-83
2021/03/03 12:45:12;;;;;;;13.45;2.53;;;16.40;99.90;;;;;;4873764;29;20937;-83
2021/03/03 12:47:39;;;;;;;9.98;1.90;;;16.30;99.90;;;;;;4875118;29;20776;-84
2021/03/03 12:50:07;;;;;;;7.35;1.80;;;16.40;99.90;;;;;;4869237;29;20410;-83
2021/03/03 12:52:34;;;;;;;6.20;1.83;;;16.40;99.90;;;;;;4880225;29;20446;-83
2021/03/03 12:55:02;;;;;;;5.90;1.88;;;16.40;99.90;;;;;;4875623;29;20398;-84